Time;durP1;ratioP1;P1;durP2;ratioP2;P2;SDS_P1;SDS_P2;PMS_P1;PMS_P2;Temp;Humidity;BMP_temperature;BMP_pressure;BME280_temperature;BME280_humidity;BME280_pressure;Samples;Min_cycle;Max_cycle;Signal;HPM_P1;HPM_P2
2021/09/27 00:02:13;;;;;;;19.40;16.73;;;19.60;99.90;;;;;;4989638;28;20129;-64
2021/09/27 00:04:39;;;;;;;17.73;15.82;;;19.30;99.90;;;;;;4975046;28;20034;-63
2021/09/27 00:07:04;;;;;;;17.95;15.75;;;19.20;99.90;;;;;;4974487;28;20035;-63
2021/09/27 00:09:33;;;;;;;18.45;15.15;;;19.30;99.90;;;;;;4975771;28;20042;-61
2021/09/27 00:12:10;;;;;;;19.75;16.05;;;19.30;99.90;;;;;;4975802;28;20043;-63
2021/09/27 00:14:37;;;;;;;17.70;15.80;;;19.30;99.90;;;;;;4975741;28;20058;-63
2021/09/27 00:17:07;;;;;;;21.17;16.58;;;19.20;99.90;;;;;;4974253;28;20069;-64
2021/09/27 00:19:34;;;;;;;21.52;16.80;;;19.10;99.90;;;;;;4974377;28;20391;-64
2021/09/27 00:22:00;;;;;;;22.73;18.13;;;19.10;99.90;;;;;;4975352;28;20035;-63
2021/09/27 00:24:26;;;;;;;26.77;19.23;;;19.10;99.90;;;;;;4974723;28;20117;-62
2021/09/27 00:26:51;;;;;;;35.40;23.92;;;19.10;99.90;;;;;;4974895;28;20186;-61
2021/09/27 00:29:17;;;;;;;22.15;14.43;;;19.10;99.90;;;;;;4974619;28;20062;-60
2021/09/27 00:31:42;;;;;;;19.98;13.32;;;19.00;99.90;;;;;;4974435;28;20043;-59
2021/09/27 00:34:08;;;;;;;17.67;11.18;;;18.80;99.90;;;;;;4974037;28;20050;-62
2021/09/27 00:36:34;;;;;;;15.05;9.93;;;18.80;99.90;;;;;;4974519;28;20050;-61
2021/09/27 00:39:00;;;;;;;15.27;8.85;;;18.70;99.90;;;;;;4974324;28;20033;-61
2021/09/27 00:41:25;;;;;;;9.38;7.30;;;18.40;99.90;;;;;;4974447;28;20039;-63
2021/09/27 00:43:51;;;;;;;11.82;8.55;;;18.40;99.90;;;;;;4956735;28;20038;-63
2021/09/27 00:46:21;;;;;;;11.90;8.75;;;18.40;99.90;;;;;;4974527;28;20081;-63
2021/09/27 00:48:47;;;;;;;11.75;7.97;;;18.40;99.90;;;;;;4974369;28;20027;-62
2021/09/27 00:51:17;;;;;;;11.68;8.13;;;18.40;99.90;;;;;;4974292;28;20037;-63
2021/09/27 00:53:51;;;;;;;11.52;7.97;;;18.50;99.90;;;;;;4974290;28;20038;-63
2021/09/27 00:56:38;;;;;;;;;;;18.50;99.90;;;;;;4974619;28;20035;-63
2021/09/27 00:59:05;;;;;;;9.20;6.60;;;18.50;99.90;;;;;;4973181;28;19914;-63
2021/09/27 01:01:31;;;;;;;9.35;6.32;;;18.50;99.90;;;;;;4972895;28;20097;-62
2021/09/27 01:03:57;;;;;;;11.55;7.55;;;18.50;99.90;;;;;;4974324;28;20030;-63
2021/09/27 01:06:35;;;;;;;12.80;7.90;;;18.30;99.90;;;;;;4974099;28;20033;-63
2021/09/27 01:09:20;;;;;;;9.45;7.22;;;18.30;99.90;;;;;;4974386;28;20092;-63
2021/09/27 01:12:03;;;;;;;10.73;7.68;;;18.30;99.90;;;;;;4974176;28;20043;-63
2021/09/27 01:14:42;;;;;;;10.57;8.02;;;18.30;99.90;;;;;;4973654;28;20042;-65
2021/09/27 01:17:42;;;;;;;11.57;7.97;;;18.40;99.90;;;;;;4974570;28;20139;-64
2021/09/27 01:20:23;;;;;;;12.30;8.60;;;18.50;99.90;;;;;;4963022;28;20047;-63
2021/09/27 01:23:07;;;;;;;13.15;8.60;;;18.60;99.90;;;;;;4973792;28;20027;-64
2021/09/27 01:26:10;;;;;;;11.00;8.23;;;18.70;99.90;;;;;;4974099;28;20066;-63
2021/09/27 01:28:49;;;;;;;14.32;8.18;;;18.70;99.90;;;;;;4973743;28;20042;-64
2021/09/27 01:31:38;;;;;;;14.05;8.95;;;18.70;99.90;;;;;;4973306;28;20035;-64
2021/09/27 01:34:25;;;;;;;13.65;8.50;;;18.70;99.90;;;;;;4973603;28;20069;-65
2021/09/27 01:37:05;;;;;;;13.20;9.05;;;18.80;99.90;;;;;;4974040;28;20088;-63
2021/09/27 01:39:41;;;;;;;13.18;9.70;;;18.80;99.90;;;;;;4973826;28;20026;-63
2021/09/27 01:42:17;;;;;;;13.93;8.98;;;18.80;99.90;;;;;;4973487;28;20158;-65
2021/09/27 01:44:56;;;;;;;11.70;9.35;;;18.90;99.90;;;;;;4973904;28;20033;-64
2021/09/27 01:47:31;;;;;;;11.35;9.00;;;18.90;99.90;;;;;;4974103;28;20022;-64
2021/09/27 01:50:06;;;;;;;12.82;8.90;;;19.00;99.90;;;;;;4974347;28;20062;-64
2021/09/27 01:52:41;;;;;;;14.13;11.20;;;19.00;99.90;;;;;;4973842;28;20035;-64
2021/09/27 01:55:22;;;;;;;14.57;10.88;;;19.10;99.90;;;;;;4973915;28;20491;-64
2021/09/27 01:58:00;;;;;;;14.48;10.07;;;19.10;99.90;;;;;;4974017;28;20031;-65
2021/09/27 02:00:31;;;;;;;14.95;11.75;;;19.00;99.90;;;;;;4974127;28;20035;-64
2021/09/27 02:03:15;;;;;;;14.82;11.35;;;19.00;99.90;;;;;;4972433;28;20514;-64
2021/09/27 02:06:16;;;;;;;14.90;11.20;;;19.00;99.90;;;;;;4974108;28;20372;-64
2021/09/27 02:08:50;;;;;;;13.40;11.45;;;19.00;99.90;;;;;;4973632;28;20061;-65
2021/09/27 02:11:28;;;;;;;15.90;11.80;;;18.80;99.90;;;;;;4973968;28;20039;-65
2021/09/27 02:14:06;;;;;;;17.33;12.23;;;19.00;99.90;;;;;;4973379;28;20691;-65
2021/09/27 02:16:52;;;;;;;14.68;12.50;;;18.80;99.90;;;;;;4973821;28;20035;-65
2021/09/27 02:19:32;;;;;;;16.98;12.68;;;18.80;99.90;;;;;;4973726;28;20070;-64
2021/09/27 02:22:23;;;;;;;15.00;11.73;;;18.90;99.90;;;;;;4973734;28;20137;-64
2021/09/27 02:24:56;;;;;;;13.43;11.43;;;19.00;99.90;;;;;;4973410;28;20360;-66
2021/09/27 02:27:22;;;;;;;13.75;11.95;;;19.00;99.90;;;;;;4974116;28;20364;-65
2021/09/27 02:29:48;;;;;;;17.40;12.32;;;19.00;99.90;;;;;;4973398;28;20390;-64
2021/09/27 02:32:38;;;;;;;17.25;13.45;;;19.00;99.90;;;;;;4972524;28;20086;-65
2021/09/27 02:35:29;;;;;;;18.10;13.82;;;19.00;99.90;;;;;;4973865;28;20129;-65
2021/09/27 02:38:03;;;;;;;15.40;13.80;;;18.90;99.90;;;;;;4973330;28;20030;-65
2021/09/27 02:40:42;;;;;;;18.25;14.85;;;18.80;99.90;;;;;;4972201;28;20031;-64
2021/09/27 02:43:10;;;;;;;17.88;14.63;;;18.70;99.90;;;;;;4974336;28;20430;-64
2021/09/27 02:45:37;;;;;;;17.15;15.45;;;18.70;99.90;;;;;;4977651;28;20117;-63
2021/09/27 02:48:29;;;;;;;18.95;16.15;;;18.70;99.90;;;;;;4977192;28;20643;-63
2021/09/27 02:50:56;;;;;;;19.55;16.02;;;18.60;99.90;;;;;;4975867;28;20096;-63
2021/09/27 02:53:22;;;;;;;17.42;14.93;;;18.60;99.90;;;;;;4976701;28;20552;-62
2021/09/27 02:56:08;;;;;;;18.13;16.23;;;18.60;99.90;;;;;;4977621;28;20042;-64
2021/09/27 02:58:41;;;;;;;16.80;14.52;;;18.50;99.90;;;;;;4976715;28;20041;-64
2021/09/27 03:01:23;;;;;;;17.63;15.75;;;18.60;99.90;;;;;;4977782;28;20030;-65
2021/09/27 03:04:07;;;;;;;16.85;14.18;;;18.60;99.90;;;;;;4977012;28;20403;-64
2021/09/27 03:06:58;;;;;;;17.73;15.90;;;18.60;99.90;;;;;;4976489;28;20034;-64
2021/09/27 03:09:32;;;;;;;21.88;17.45;;;18.60;99.90;;;;;;4976830;28;20035;-63
2021/09/27 03:12:09;;;;;;;19.65;17.60;;;18.50;99.90;;;;;;4976842;28;20039;-62
2021/09/27 03:15:18;;;;;;;18.90;16.60;;;18.50;99.90;;;;;;4975736;28;20035;-64
2021/09/27 03:18:20;;;;;;;20.33;17.40;;;18.60;99.90;;;;;;4976616;28;20045;-65
2021/09/27 03:20:57;;;;;;;18.42;16.42;;;18.60;99.90;;;;;;4976527;28;20037;-65
2021/09/27 03:23:50;;;;;;;20.05;17.92;;;18.70;99.90;;;;;;4976484;28;20027;-65
2021/09/27 03:26:53;;;;;;;20.92;18.52;;;18.70;99.90;;;;;;4976762;28;20034;-65
2021/09/27 03:29:32;;;;;;;21.27;17.67;;;18.70;99.90;;;;;;4976691;28;20427;-65
2021/09/27 03:32:25;;;;;;;19.17;17.10;;;18.70;99.90;;;;;;4976072;28;20037;-66
2021/09/27 03:34:56;;;;;;;19.83;17.83;;;18.70;99.90;;;;;;4974582;28;20030;-65
2021/09/27 03:37:39;;;;;;;21.10;18.90;;;18.70;99.90;;;;;;4976478;28;20084;-66
2021/09/27 03:40:30;;;;;;;20.58;17.80;;;18.80;99.90;;;;;;4976511;28;20034;-65
2021/09/27 03:43:25;;;;;;;17.88;16.02;;;18.80;99.90;;;;;;4975687;28;20030;-65
2021/09/27 03:46:10;;;;;;;18.02;16.13;;;18.90;99.90;;;;;;4976774;28;20035;-65
2021/09/27 03:48:50;;;;;;;18.95;17.00;;;19.00;99.90;;;;;;4976502;28;20030;-65
2021/09/27 03:51:26;;;;;;;19.30;17.15;;;19.00;99.90;;;;;;4976030;28;20041;-65
2021/09/27 03:54:04;;;;;;;21.80;17.58;;;19.00;99.90;;;;;;4975848;28;20066;-66
2021/09/27 03:57:07;;;;;;;17.58;15.75;;;18.90;99.90;;;;;;4974909;28;20089;-64
2021/09/27 03:59:47;;;;;;;24.13;21.02;;;19.00;99.90;;;;;;4970770;28;20106;-65
2021/09/27 04:02:35;;;;;;;23.95;21.45;;;19.00;99.90;;;;;;4975613;28;20049;-65
2021/09/27 04:05:35;;;;;;;21.00;18.50;;;19.00;99.90;;;;;;4974431;28;20511;-65
2021/09/27 04:08:26;;;;;;;20.45;18.25;;;19.00;99.90;;;;;;4975258;28;20074;-65
2021/09/27 04:11:39;;;;;;;24.05;21.27;;;19.00;99.90;;;;;;4975840;28;20062;-64
2021/09/27 04:14:22;;;;;;;21.42;19.17;;;19.00;99.90;;;;;;4940732;28;20487;-65
2021/09/27 04:17:31;;;;;;;21.50;19.25;;;18.90;99.90;;;;;;4975670;28;20542;-65
2021/09/27 04:20:28;;;;;;;23.55;18.55;;;18.90;99.90;;;;;;4975512;28;20039;-64
2021/09/27 04:23:13;;;;;;;28.42;23.67;;;18.90;99.90;;;;;;4975322;28;20046;-64
2021/09/27 04:25:58;;;;;;;28.50;25.50;;;18.90;99.90;;;;;;4975885;28;20062;-64
2021/09/27 04:28:31;;;;;;;;;;;18.90;99.90;;;;;;4975251;28;20438;-65
2021/09/27 04:31:28;;;;;;;26.67;22.75;;;18.80;99.90;;;;;;4975613;28;20382;-65
2021/09/27 04:34:06;;;;;;;30.92;23.70;;;18.70;99.90;;;;;;4975416;28;20069;-65
2021/09/27 04:36:36;;;;;;;26.13;21.67;;;18.70;99.90;;;;;;4975128;28;20402;-65
2021/09/27 04:39:10;;;;;;;29.58;24.70;;;18.70;99.90;;;;;;4974608;28;20085;-64
2021/09/27 04:41:53;;;;;;;30.55;24.52;;;18.70;99.90;;;;;;4975394;28;20037;-65
2021/09/27 04:44:49;;;;;;;29.48;24.58;;;18.70;99.90;;;;;;4974735;28;20077;-64
2021/09/27 04:47:39;;;;;;;28.55;24.10;;;18.70;99.90;;;;;;4975342;28;20035;-66
2021/09/27 04:50:24;;;;;;;33.65;25.25;;;18.70;99.90;;;;;;4975618;28;20031;-65
2021/09/27 04:52:56;;;;;;;27.75;22.90;;;18.60;99.90;;;;;;4974217;28;20035;-65
2021/09/27 04:55:45;;;;;;;32.08;27.33;;;18.60;99.90;;;;;;4973382;28;20038;-65
2021/09/27 04:58:35;;;;;;;41.45;31.85;;;18.60;99.90;;;;;;4974460;28;20364;-65
2021/09/27 05:01:11;;;;;;;36.13;26.98;;;18.60;99.90;;;;;;4973980;28;20035;-65
2021/09/27 05:04:04;;;;;;;29.70;23.35;;;18.70;99.90;;;;;;4974174;28;20046;-65
2021/09/27 05:06:44;;;;;;;27.42;22.90;;;18.70;99.90;;;;;;4974301;28;20027;-66
2021/09/27 05:09:29;;;;;;;32.53;22.88;;;18.60;99.90;;;;;;4974662;28;20069;-66
2021/09/27 05:12:11;;;;;;;28.13;22.40;;;18.70;99.90;;;;;;4973810;28;20030;-66
2021/09/27 05:15:04;;;;;;;31.80;26.65;;;18.60;99.90;;;;;;4974260;28;20126;-65
2021/09/27 05:17:59;;;;;;;32.15;26.63;;;18.60;99.90;;;;;;4974282;28;20046;-64
2021/09/27 05:20:42;;;;;;;33.08;28.10;;;18.50;99.90;;;;;;4973756;28;20026;-65
2021/09/27 05:23:43;;;;;;;31.85;26.80;;;18.60;99.90;;;;;;4974009;28;20027;-65
2021/09/27 05:26:40;;;;;;;32.70;26.73;;;18.50;99.90;;;;;;4974042;28;20045;-65
2021/09/27 05:29:32;;;;;;;27.27;23.58;;;18.50;99.90;;;;;;4972669;28;20052;-64
2021/09/27 05:32:13;;;;;;;28.67;24.90;;;18.50;99.90;;;;;;4988501;28;20035;-65
2021/09/27 05:34:52;;;;;;;32.25;27.70;;;18.50;99.90;;;;;;4973834;28;20081;-65
2021/09/27 05:37:35;;;;;;;27.92;24.02;;;18.50;99.90;;;;;;4973817;28;20105;-65
2021/09/27 05:40:15;;;;;;;26.85;22.33;;;18.50;99.90;;;;;;4972724;28;20034;-65
2021/09/27 05:43:09;;;;;;;23.02;20.52;;;18.50;99.90;;;;;;4974712;28;20038;-64
2021/09/27 05:45:46;;;;;;;26.08;21.60;;;18.50;99.90;;;;;;4974213;28;20125;-64
2021/09/27 05:48:26;;;;;;;23.35;20.50;;;18.50;99.90;;;;;;4974523;28;20081;-64
2021/09/27 05:51:04;;;;;;;26.35;21.50;;;18.50;99.90;;;;;;4973977;28;20058;-64
2021/09/27 05:53:41;;;;;;;23.38;20.35;;;18.40;99.90;;;;;;4973899;28;20554;-63
2021/09/27 05:56:18;;;;;;;29.02;24.38;;;18.50;99.90;;;;;;4973808;28;20035;-64
2021/09/27 05:58:47;;;;;;;28.55;24.33;;;18.50;99.90;;;;;;4973251;28;20268;-64
2021/09/27 06:01:25;;;;;;;26.83;22.42;;;18.50;99.90;;;;;;4967778;28;20047;-64
2021/09/27 06:04:08;;;;;;;29.73;25.27;;;18.50;99.90;;;;;;4960427;28;20035;-64
2021/09/27 06:06:45;;;;;;;28.35;24.23;;;18.50;99.90;;;;;;4983092;28;20483;-65
2021/09/27 06:09:22;;;;;;;29.75;25.00;;;18.50;99.90;;;;;;4993013;28;20034;-64
2021/09/27 06:12:22;;;;;;;29.35;26.08;;;18.50;99.90;;;;;;4993693;28;20081;-66
2021/09/27 06:14:50;;;;;;;32.78;26.38;;;18.50;99.90;;;;;;4983606;28;20042;-64
2021/09/27 06:17:34;;;;;;;29.90;24.75;;;18.50;99.90;;;;;;4972892;28;20117;-63
2021/09/27 06:20:11;;;;;;;28.90;24.17;;;18.50;99.90;;;;;;4978463;28;20030;-64
2021/09/27 06:23:06;;;;;;;29.50;23.23;;;18.50;99.90;;;;;;4977576;28;20030;-64
2021/09/27 06:25:50;;;;;;;28.70;22.85;;;18.60;99.90;;;;;;4987994;28;20035;-64
2021/09/27 06:28:34;;;;;;;25.77;21.20;;;18.50;99.90;;;;;;4996816;28;20495;-65
2021/09/27 06:31:14;;;;;;;28.57;22.60;;;18.60;99.90;;;;;;4984210;28;20082;-65
2021/09/27 06:34:02;;;;;;;27.25;22.95;;;18.70;99.90;;;;;;4958189;28;20039;-64
2021/09/27 06:36:31;;;;;;;31.05;24.00;;;18.70;99.90;;;;;;4966743;28;20040;-65
2021/09/27 06:38:59;;;;;;;25.58;21.00;;;18.60;99.90;;;;;;4992313;28;20043;-64
2021/09/27 06:41:27;;;;;;;28.38;21.90;;;18.60;99.90;;;;;;4991948;28;20043;-65
2021/09/27 06:43:53;;;;;;;28.65;21.20;;;18.60;99.90;;;;;;4977795;28;20035;-64
2021/09/27 06:46:20;;;;;;;41.50;34.53;;;18.70;99.90;;;;;;4993158;28;20038;-64
2021/09/27 06:48:46;;;;;;;38.60;31.27;;;18.70;99.90;;;;;;4966850;28;20042;-65
2021/09/27 06:51:12;;;;;;;34.75;27.40;;;18.60;99.90;;;;;;4979952;28;20106;-65
2021/09/27 06:53:38;;;;;;;36.25;27.85;;;18.60;99.90;;;;;;4994942;28;20070;-66
2021/09/27 06:56:04;;;;;;;39.40;30.58;;;18.60;99.90;;;;;;4994557;28;20041;-65
2021/09/27 06:58:30;;;;;;;42.70;30.05;;;18.60;99.90;;;;;;4995595;28;20034;-65
2021/09/27 07:00:56;;;;;;;40.38;31.33;;;18.60;99.90;;;;;;5004545;28;20082;-65
2021/09/27 07:03:22;;;;;;;46.65;36.25;;;18.60;99.90;;;;;;4975930;28;20078;-65
2021/09/27 07:05:49;;;;;;;41.97;31.33;;;18.50;99.90;;;;;;4976579;28;20449;-65
2021/09/27 07:08:15;;;;;;;40.03;31.27;;;18.60;99.90;;;;;;4976797;28;20034;-63
2021/09/27 07:10:41;;;;;;;41.83;30.98;;;18.60;99.90;;;;;;4976412;28;20033;-65
2021/09/27 07:13:07;;;;;;;36.08;28.75;;;18.60;99.90;;;;;;4976152;28;20491;-65
2021/09/27 07:15:32;;;;;;;39.38;29.83;;;18.70;99.90;;;;;;4974686;28;20134;-64
2021/09/27 07:17:58;;;;;;;33.22;27.38;;;18.70;99.90;;;;;;4976203;28;20041;-65
2021/09/27 07:20:26;;;;;;;35.78;28.50;;;18.70;99.90;;;;;;4974482;28;20061;-63
2021/09/27 07:22:52;;;;;;;36.92;27.38;;;18.80;99.90;;;;;;4966447;28;20043;-64
2021/09/27 07:25:18;;;;;;;29.70;25.45;;;19.00;99.90;;;;;;4972679;28;20039;-64
2021/09/27 07:27:44;;;;;;;30.65;23.90;;;18.90;99.90;;;;;;4974085;28;20563;-64
2021/09/27 07:30:11;;;;;;;29.33;23.65;;;18.90;99.90;;;;;;4973156;28;20335;-64
2021/09/27 07:32:37;;;;;;;29.17;24.98;;;18.90;99.90;;;;;;4972039;28;20027;-65
2021/09/27 07:35:04;;;;;;;28.70;22.77;;;18.90;99.90;;;;;;4974771;28;20130;-64
2021/09/27 07:37:30;;;;;;;27.40;23.90;;;18.90;99.90;;;;;;4974725;28;20034;-64
2021/09/27 07:39:56;;;;;;;27.48;22.50;;;19.00;99.90;;;;;;4990605;28;20058;-64
2021/09/27 07:42:21;;;;;;;23.88;20.65;;;19.10;99.90;;;;;;4973764;28;20463;-64
2021/09/27 07:44:47;;;;;;;23.23;20.23;;;19.10;99.90;;;;;;4974065;28;20723;-64
2021/09/27 07:47:12;;;;;;;23.27;18.42;;;19.00;99.90;;;;;;4975325;28;20030;-64
2021/09/27 07:54:41;;;;;;;23.08;20.63;;;19.10;99.90;;;;;;5022114;28;20033;-64
2021/09/27 07:57:07;;;;;;;26.17;20.10;;;19.10;99.90;;;;;;5029131;28;20476;-65
2021/09/27 07:59:33;;;;;;;21.58;19.02;;;19.10;99.90;;;;;;5021272;28;20484;-64
2021/09/27 08:01:59;;;;;;;23.63;20.13;;;19.10;99.90;;;;;;5023464;28;20022;-62
2021/09/27 08:04:24;;;;;;;27.45;22.30;;;19.20;99.90;;;;;;5022041;28;20053;-63
2021/09/27 08:06:50;;;;;;;22.80;20.30;;;19.30;99.90;;;;;;5006125;28;20021;-64
2021/09/27 08:09:15;;;;;;;21.02;18.83;;;19.30;99.90;;;;;;5021862;28;20141;-64
2021/09/27 08:11:42;;;;;;;21.65;18.15;;;19.40;99.90;;;;;;5023611;28;21243;-64
2021/09/27 08:14:09;;;;;;;20.70;18.30;;;19.30;99.90;;;;;;5022139;28;20033;-63
2021/09/27 08:16:35;;;;;;;21.92;17.60;;;19.30;99.90;;;;;;5023719;28;20037;-62
2021/09/27 08:19:01;;;;;;;23.10;20.50;;;19.30;99.90;;;;;;5021827;28;20033;-64
2021/09/27 08:21:27;;;;;;;23.00;20.50;;;19.40;99.90;;;;;;5021536;28;20018;-62
2021/09/27 08:23:52;;;;;;;20.63;17.77;;;19.50;99.90;;;;;;5023301;28;20030;-70
2021/09/27 08:26:19;;;;;;;20.63;18.40;;;19.60;99.90;;;;;;5007555;28;20029;-63
2021/09/27 08:28:45;;;;;;;20.38;16.33;;;19.70;99.90;;;;;;5022538;28;20033;-63
2021/09/27 08:31:17;;;;;;;25.05;18.25;;;19.70;99.90;;;;;;5023464;28;20033;-61
2021/09/27 08:33:43;;;;;;;21.92;18.10;;;19.70;99.90;;;;;;5023446;28;20107;-63
2021/09/27 08:36:12;;;;;;;22.38;18.15;;;19.70;99.90;;;;;;5020367;28;20104;-62
2021/09/27 08:38:38;;;;;;;21.27;17.67;;;19.70;99.90;;;;;;5023560;28;20445;-64
2021/09/27 08:41:31;;;;;;;25.00;22.40;;;19.80;99.90;;;;;;5021479;28;20543;-63
2021/09/27 08:44:22;;;;;;;22.45;20.02;;;19.80;99.90;;;;;;5024115;28;20121;-64
2021/09/27 08:46:53;;;;;;;22.27;19.80;;;19.90;99.90;;;;;;5020385;28;20384;-65
2021/09/27 08:49:38;;;;;;;21.48;18.10;;;19.80;99.90;;;;;;5023261;28;20107;-62
2021/09/27 08:52:06;;;;;;;21.08;18.20;;;19.90;99.90;;;;;;5022972;28;20033;-64
2021/09/27 08:54:34;;;;;;;20.38;18.15;;;19.90;99.90;;;;;;5023391;28;20063;-65
2021/09/27 08:57:10;;;;;;;22.13;18.48;;;20.00;99.90;;;;;;5023128;28;20048;-63
2021/09/27 08:59:51;;;;;;;19.10;17.05;;;20.00;99.90;;;;;;5021674;28;20029;-63
2021/09/27 09:02:38;;;;;;;25.30;19.70;;;20.00;99.90;;;;;;5026798;28;20427;-64
2021/09/27 09:05:18;;;;;;;22.92;17.60;;;20.10;99.90;;;;;;5023965;28;20030;-63
2021/09/27 09:08:09;;;;;;;19.42;16.52;;;20.20;99.90;;;;;;5025710;28;20037;-63
2021/09/27 09:10:44;;;;;;;19.67;16.98;;;20.30;99.90;;;;;;5025456;28;20030;-64
2021/09/27 09:13:14;;;;;;;21.35;18.35;;;20.30;99.90;;;;;;5023136;28;20461;-63
2021/09/27 09:15:42;;;;;;;20.15;16.70;;;20.30;99.90;;;;;;5024299;28;20109;-63
2021/09/27 09:18:24;;;;;;;21.08;18.45;;;20.40;99.90;;;;;;5022043;28;20097;-63
2021/09/27 09:21:12;;;;;;;20.13;17.05;;;20.30;99.90;;;;;;5024615;28;20476;-63
2021/09/27 09:23:48;;;;;;;20.02;17.90;;;20.40;99.90;;;;;;5038665;28;20088;-63
2021/09/27 09:26:17;;;;;;;21.65;19.35;;;20.50;99.90;;;;;;5047341;28;20029;-62
2021/09/27 09:28:47;;;;;;;19.85;17.65;;;20.60;99.90;;;;;;5031880;28;20114;-63
2021/09/27 09:31:18;;;;;;;19.23;16.85;;;20.60;99.90;;;;;;5032335;28;20025;-63
2021/09/27 09:33:56;;;;;;;20.30;16.30;;;20.60;99.90;;;;;;5032880;28;20045;-63
2021/09/27 09:36:30;;;;;;;23.17;18.83;;;20.70;99.90;;;;;;5032821;28;20060;-64
2021/09/27 09:38:56;;;;;;;20.92;18.70;;;20.70;99.90;;;;;;5032569;28;20461;-63
2021/09/27 09:41:22;;;;;;;20.77;18.55;;;20.70;99.90;;;;;;5030347;28;20081;-63
2021/09/27 09:43:50;;;;;;;20.50;17.25;;;20.70;99.90;;;;;;5022699;28;20395;-62
2021/09/27 09:46:30;;;;;;;19.10;17.05;;;20.70;99.90;;;;;;5021557;28;20392;-63
2021/09/27 09:49:09;;;;;;;21.58;19.27;;;20.70;99.90;;;;;;5020488;28;20061;-63
2021/09/27 09:51:40;;;;;;;22.35;18.45;;;20.70;99.90;;;;;;5019861;28;20038;-63
2021/09/27 09:54:21;;;;;;;23.05;19.20;;;20.70;99.90;;;;;;5023798;28;20110;-63
2021/09/27 09:57:04;;;;;;;25.35;22.73;;;20.80;99.90;;;;;;5024734;28;20741;-64
2021/09/27 09:59:37;;;;;;;21.20;19.00;;;20.90;99.90;;;;;;5023503;28;20034;-63
2021/09/27 10:02:17;;;;;;;19.67;17.58;;;20.90;99.90;;;;;;5024292;28;20017;-65
2021/09/27 10:04:46;;;;;;;22.73;18.55;;;21.00;99.90;;;;;;5026698;28;20119;-63
2021/09/27 10:07:16;;;;;;;19.88;17.27;;;21.00;99.90;;;;;;5027571;28;20045;-63
2021/09/27 10:10:04;;;;;;;21.95;19.60;;;21.10;99.90;;;;;;5032519;28;20030;-64
2021/09/27 10:12:42;;;;;;;20.40;17.90;;;21.10;99.90;;;;;;5032178;28;20363;-62
2021/09/27 10:15:27;;;;;;;20.50;17.95;;;21.00;99.90;;;;;;5032632;28;20029;-63
2021/09/27 10:18:23;;;;;;;23.80;17.95;;;21.00;99.90;;;;;;5031585;28;20025;-64
2021/09/27 10:20:57;;;;;;;22.52;18.27;;;21.00;99.90;;;;;;5027041;28;20029;-64
2021/09/27 10:24:03;;;;;;;21.25;18.23;;;21.00;99.90;;;;;;5032237;28;20033;-63
2021/09/27 10:26:35;;;;;;;19.98;16.58;;;21.00;99.90;;;;;;5022917;28;20488;-64
2021/09/27 10:29:18;;;;;;;20.25;17.90;;;21.00;99.90;;;;;;5030934;28;20036;-63
2021/09/27 10:31:59;;;;;;;23.75;18.33;;;21.00;99.90;;;;;;5027356;28;20036;-64
2021/09/27 10:34:29;;;;;;;19.95;17.80;;;21.10;99.90;;;;;;5031566;28;20091;-63
2021/09/27 10:37:01;;;;;;;23.85;19.20;;;21.00;99.90;;;;;;5033364;28;20029;-63
2021/09/27 10:39:30;;;;;;;21.25;18.23;;;21.00;99.90;;;;;;5032850;28;20056;-63
2021/09/27 10:42:04;;;;;;;19.88;16.63;;;21.00;99.90;;;;;;5032677;28;20036;-63
2021/09/27 10:44:41;;;;;;;20.40;18.00;;;21.10;99.90;;;;;;5033423;28;20064;-63
2021/09/27 10:47:12;;;;;;;22.38;17.98;;;21.20;99.90;;;;;;5033199;28;20087;-64
2021/09/27 10:49:52;;;;;;;19.35;17.27;;;21.40;99.90;;;;;;5032132;28;20065;-64
2021/09/27 10:52:20;;;;;;;18.10;15.07;;;21.60;99.90;;;;;;5031657;28;20026;-63
2021/09/27 10:55:13;;;;;;;20.83;17.48;;;21.90;99.90;;;;;;5025646;28;20435;-63
2021/09/27 10:57:53;;;;;;;20.67;17.20;;;22.10;99.90;;;;;;5037599;28;20040;-63
2021/09/27 11:00:34;;;;;;;24.80;17.40;;;22.40;99.30;;;;;;5031522;28;20022;-63
2021/09/27 11:03:07;;;;;;;22.05;19.52;;;22.50;99.10;;;;;;5029101;28;20635;-64
2021/09/27 11:05:50;;;;;;;20.90;18.77;;;22.30;98.50;;;;;;5033567;28;20036;-64
2021/09/27 11:08:34;;;;;;;22.52;20.13;;;22.00;98.80;;;;;;5034086;28;20032;-64
2021/09/27 11:11:36;;;;;;;22.95;20.33;;;21.90;98.90;;;;;;5035568;28;20112;-63
2021/09/27 11:14:27;;;;;;;24.10;21.70;;;21.90;99.00;;;;;;5034550;28;20041;-64
2021/09/27 11:17:07;;;;;;;20.83;18.63;;;21.80;99.10;;;;;;5035381;28;20116;-63
2021/09/27 11:19:32;;;;;;;21.83;19.60;;;21.90;98.90;;;;;;5035643;28;20033;-64
2021/09/27 11:22:13;;;;;;;22.80;20.42;;;22.10;98.70;;;;;;5035393;28;20033;-64
2021/09/27 11:24:44;;;;;;;22.70;20.52;;;22.10;98.50;;;;;;5034956;28;20025;-63
2021/09/27 11:27:30;;;;;;;22.40;20.10;;;21.90;98.70;;;;;;5035414;28;20033;-65
2021/09/27 11:30:34;;;;;;;23.98;20.48;;;21.80;98.90;;;;;;5035335;28;20037;-63
2021/09/27 11:33:17;;;;;;;22.70;20.35;;;21.70;98.90;;;;;;5026452;28;20049;-63
2021/09/27 11:35:45;;;;;;;23.35;21.15;;;21.70;99.00;;;;;;5034381;28;20087;-64
2021/09/27 11:38:36;;;;;;;24.13;21.83;;;21.60;98.80;;;;;;5026028;28;20368;-64
2021/09/27 11:41:26;;;;;;;24.60;22.23;;;21.50;99.20;;;;;;5025013;28;20044;-63
2021/09/27 11:44:24;;;;;;;25.23;22.70;;;21.20;99.80;;;;;;5020720;28;20101;-62
2021/09/27 11:47:03;;;;;;;24.27;21.88;;;21.00;99.90;;;;;;5021610;28;20041;-63
2021/09/27 11:49:57;;;;;;;25.40;22.83;;;21.10;99.90;;;;;;5024213;28;20036;-63
2021/09/27 11:52:43;;;;;;;26.35;23.58;;;21.00;99.80;;;;;;5039177;28;20022;-64
2021/09/27 11:55:14;;;;;;;24.92;22.42;;;21.10;99.60;;;;;;5025367;28;20403;-63
2021/09/27 11:57:43;;;;;;;22.50;20.25;;;21.30;99.60;;;;;;5022506;28;20032;-64
2021/09/27 12:01:10;;;;;;;24.02;21.60;;;21.50;99.40;;;;;;5024337;28;20633;-63
2021/09/27 12:03:52;;;;;;;23.67;21.33;;;21.60;99.00;;;;;;5002160;28;20039;-64
2021/09/27 12:06:28;;;;;;;23.30;21.00;;;21.70;98.50;;;;;;5002286;28;20032;-63
2021/09/27 12:09:06;;;;;;;23.83;21.45;;;21.70;98.30;;;;;;5014299;28;20172;-64
2021/09/27 12:11:34;;;;;;;23.00;20.50;;;21.70;98.50;;;;;;5024084;28;20112;-65
2021/09/27 12:14:03;;;;;;;22.70;20.38;;;21.90;98.20;;;;;;5024071;28;21278;-64
2021/09/27 12:16:38;;;;;;;21.42;19.38;;;22.00;98.10;;;;;;5023719;28;20036;-64
2021/09/27 12:19:25;;;;;;;20.13;18.00;;;22.10;97.00;;;;;;5021696;28;20480;-64
2021/09/27 12:21:58;;;;;;;20.48;18.38;;;22.20;96.40;;;;;;5023412;28;20037;-64
2021/09/27 12:24:27;;;;;;;18.85;17.05;;;22.30;96.40;;;;;;5022742;28;20384;-66
2021/09/27 12:27:13;;;;;;;18.35;16.55;;;22.50;96.40;;;;;;5014233;28;20025;-62
2021/09/27 12:30:11;;;;;;;16.80;15.15;;;22.90;96.20;;;;;;5013988;28;20037;-63
2021/09/27 12:32:39;;;;;;;17.27;15.57;;;22.80;95.20;;;;;;5013482;28;20053;-63
2021/09/27 12:35:16;;;;;;;17.05;15.15;;;22.60;95.20;;;;;;5012496;28;20100;-63
2021/09/27 12:37:43;;;;;;;16.13;14.52;;;22.40;95.70;;;;;;5013839;28;20121;-63
2021/09/27 12:40:13;;;;;;;15.65;14.07;;;22.40;95.80;;;;;;5014339;28;20034;-63
2021/09/27 12:42:50;;;;;;;15.32;13.60;;;22.20;95.60;;;;;;5013318;28;20364;-64
2021/09/27 12:45:28;;;;;;;14.55;12.63;;;22.10;95.30;;;;;;5013746;28;20026;-63
2021/09/27 12:47:56;;;;;;;14.13;12.65;;;22.00;95.30;;;;;;5016543;28;20446;-63
2021/09/27 12:50:25;;;;;;;13.93;12.52;;;22.20;95.40;;;;;;5043103;28;20083;-63
2021/09/27 12:52:59;;;;;;;15.15;13.45;;;22.30;95.50;;;;;;5031707;28;20501;-63
2021/09/27 12:55:45;;;;;;;18.52;13.48;;;22.20;95.50;;;;;;5020492;28;20053;-63
2021/09/27 12:58:26;;;;;;;14.35;12.85;;;22.10;95.70;;;;;;5013003;28;20112;-63
2021/09/27 13:00:52;;;;;;;13.60;12.40;;;22.20;95.90;;;;;;5016129;28;20030;-63
2021/09/27 13:03:23;;;;;;;13.75;12.40;;;22.30;95.60;;;;;;5033291;28;20030;-62
2021/09/27 13:05:52;;;;;;;15.30;12.18;;;22.20;95.20;;;;;;5033908;28;20022;-64
2021/09/27 13:08:51;;;;;;;14.15;12.60;;;22.30;94.70;;;;;;5032726;28;20488;-64
2021/09/27 13:11:28;;;;;;;14.60;13.13;;;22.50;94.90;;;;;;5027830;28;20049;-64
2021/09/27 13:14:20;;;;;;;16.05;12.73;;;22.80;94.60;;;;;;5011887;28;20058;-63
2021/09/27 13:16:49;;;;;;;15.07;11.25;;;23.00;94.10;;;;;;5014013;28;20037;-64
2021/09/27 13:19:41;;;;;;;13.20;11.90;;;23.00;93.50;;;;;;5028150;28;20037;-63
2021/09/27 13:22:26;;;;;;;13.60;12.20;;;23.10;93.50;;;;;;5031335;28;20040;-62
2021/09/27 13:25:03;;;;;;;13.02;11.50;;;23.20;93.00;;;;;;5033281;28;20401;-63
2021/09/27 13:27:38;;;;;;;16.42;12.05;;;23.30;92.70;;;;;;5031304;28;20033;-63